createdAt,value
2023-02-09T00:02:16.083Z,14.77
2023-02-09T00:04:50.630Z,16.87
2023-02-09T00:07:24.590Z,17.30
2023-02-09T00:09:59.610Z,16.83
2023-02-09T00:12:45.514Z,17.70
2023-02-09T00:15:19.658Z,16.23
2023-02-09T00:17:53.558Z,16.13
2023-02-09T00:20:21.101Z,17.77
2023-02-09T00:22:49.897Z,17.47
2023-02-09T00:25:25.966Z,17.00
2023-02-09T00:27:53.580Z,17.10
2023-02-09T00:30:27.649Z,16.13
2023-02-09T00:32:55.043Z,16.87
2023-02-09T00:35:30.616Z,17.90
2023-02-09T00:37:58.034Z,17.17
2023-02-09T00:40:31.882Z,16.73
2023-02-09T00:43:06.571Z,17.80
2023-02-09T00:45:41.673Z,17.47
2023-02-09T00:48:09.156Z,17.53
2023-02-09T00:50:42.996Z,18.00
2023-02-09T00:53:23.699Z,17.87
2023-02-09T00:55:58.553Z,17.37
2023-02-09T00:58:32.691Z,20.47
2023-02-09T01:01:06.698Z,18.43
2023-02-09T01:03:40.629Z,18.77
2023-02-09T01:06:15.584Z,18.73
2023-02-09T01:08:50.601Z,17.87
2023-02-09T01:11:25.541Z,16.73
2023-02-09T01:13:55.195Z,17.83
2023-02-09T01:16:29.653Z,17.83
2023-02-09T01:19:00.780Z,17.33
2023-02-09T01:21:34.599Z,18.93
2023-02-09T01:24:02.005Z,19.23
2023-02-09T01:26:35.605Z,19.47
2023-02-09T01:29:04.534Z,19.47
2023-02-09T01:31:41.877Z,18.27
2023-02-09T01:34:21.898Z,19.50
2023-02-09T01:36:52.515Z,19.57
2023-02-09T01:39:27.649Z,20.07
2023-02-09T01:42:01.563Z,19.17
2023-02-09T01:44:38.687Z,18.17
2023-02-09T01:47:18.575Z,20.87
2023-02-09T01:49:57.933Z,18.97
2023-02-09T01:52:40.036Z,19.73
2023-02-09T01:55:11.844Z,20.50
2023-02-09T01:58:06.806Z,19.50
2023-02-09T02:00:41.610Z,19.67
2023-02-09T02:03:21.665Z,20.00
2023-02-09T02:06:02.605Z,20.07
2023-02-09T02:08:46.015Z,21.30
2023-02-09T02:11:20.604Z,18.93
2023-02-09T02:13:54.611Z,20.87
2023-02-09T02:16:33.795Z,19.80
2023-02-09T02:19:56.720Z,21.17
2023-02-09T02:22:43.643Z,20.03
2023-02-09T02:25:49.634Z,21.63
2023-02-09T02:29:05.045Z,21.67
2023-02-09T02:32:16.645Z,22.07
2023-02-09T02:35:14.589Z,22.20
2023-02-09T02:37:58.376Z,20.43
2023-02-09T02:40:54.647Z,22.30
2023-02-09T02:43:59.593Z,23.27
2023-02-09T02:46:39.734Z,22.43
2023-02-09T02:49:22.614Z,21.80
2023-02-09T02:52:07.622Z,22.23
2023-02-09T02:54:39.911Z,23.07
2023-02-09T02:57:23.647Z,23.40
2023-02-09T03:00:12.600Z,23.63
2023-02-09T03:02:54.293Z,23.60
2023-02-09T03:05:30.777Z,22.83
2023-02-09T03:07:58.267Z,21.47
2023-02-09T03:10:46.025Z,21.23
2023-02-09T03:13:38.888Z,22.23
2023-02-09T03:16:39.517Z,21.57
2023-02-09T03:19:38.744Z,21.47
2023-02-09T03:22:26.957Z,22.33
2023-02-09T03:25:28.734Z,21.50
2023-02-09T03:28:14.207Z,22.13
2023-02-09T03:30:51.707Z,20.07
2023-02-09T03:33:31.611Z,21.53
2023-02-09T03:36:01.271Z,20.33
2023-02-09T03:38:35.617Z,21.87
2023-02-09T03:41:03.598Z,20.27
2023-02-09T03:43:56.623Z,20.00
2023-02-09T03:46:24.348Z,20.83
2023-02-09T03:48:58.647Z,20.60
2023-02-09T03:51:39.657Z,19.57
2023-02-09T03:54:13.889Z,19.87
2023-02-09T03:56:47.581Z,21.47
2023-02-09T03:59:21.757Z,20.20
2023-02-09T04:01:49.376Z,20.60
2023-02-09T04:04:25.718Z,21.03
2023-02-09T04:06:54.027Z,19.77
2023-02-09T04:09:28.592Z,20.93
2023-02-09T04:11:56.391Z,19.23
2023-02-09T04:14:30.641Z,18.17
2023-02-09T04:16:58.339Z,20.10
2023-02-09T04:19:32.600Z,18.63
2023-02-09T04:22:01.012Z,19.17
2023-02-09T04:24:35.609Z,20.03
2023-02-09T04:27:03.177Z,19.80
2023-02-09T04:29:37.656Z,20.20
2023-02-09T04:32:13.645Z,23.70
2023-02-09T04:34:42.032Z,24.13
2023-02-09T04:37:15.713Z,23.23
2023-02-09T04:39:43.309Z,25.27
2023-02-09T04:42:17.591Z,22.77
2023-02-09T04:44:51.672Z,23.30
2023-02-09T04:47:19.322Z,23.53
2023-02-09T04:49:54.649Z,23.30
2023-02-09T04:52:35.638Z,24.33
2023-02-09T04:55:03.664Z,25.77
2023-02-09T04:57:56.666Z,25.53
2023-02-09T05:00:30.660Z,24.17
2023-02-09T05:03:04.702Z,24.77
2023-02-09T05:05:32.462Z,24.93
2023-02-09T05:08:06.673Z,25.00
2023-02-09T05:10:41.692Z,25.37
2023-02-09T05:13:09.199Z,25.17
2023-02-09T05:15:43.637Z,26.43
2023-02-09T05:18:12.807Z,25.23
2023-02-09T05:20:47.104Z,24.90
2023-02-09T05:23:21.759Z,24.73
2023-02-09T05:25:49.786Z,23.97
2023-02-09T05:28:17.388Z,24.13
2023-02-09T05:30:51.865Z,24.03
2023-02-09T05:33:28.859Z,23.03
2023-02-09T05:35:59.315Z,24.37
2023-02-09T05:38:33.772Z,21.13
2023-02-09T05:41:06.526Z,19.70
2023-02-09T05:43:40.822Z,19.63
2023-02-09T05:46:14.818Z,18.97
2023-02-09T05:48:48.768Z,18.17
2023-02-09T05:51:36.782Z,17.07
2023-02-09T05:54:10.765Z,18.50
2023-02-09T05:56:45.776Z,18.87
2023-02-09T05:59:13.312Z,18.47
2023-02-09T06:01:47.762Z,19.23
2023-02-09T06:04:21.788Z,19.87
2023-02-09T06:06:49.295Z,17.70
2023-02-09T06:09:23.776Z,18.27
2023-02-09T06:11:51.595Z,16.90
2023-02-09T06:14:25.759Z,17.13
2023-02-09T06:16:54.535Z,16.53
2023-02-09T06:19:28.773Z,16.33
2023-02-09T06:21:56.285Z,15.57
2023-02-09T06:24:31.773Z,15.43
2023-02-09T06:26:59.301Z,14.80
2023-02-09T06:29:33.749Z,15.90
2023-02-09T06:32:07.906Z,16.33
2023-02-09T06:34:41.801Z,16.57
2023-02-09T06:37:10.478Z,16.00
2023-02-09T06:39:44.784Z,18.37
2023-02-09T06:42:12.280Z,15.67
2023-02-09T06:44:39.715Z,14.83
2023-02-09T06:47:13.756Z,16.97
2023-02-09T06:49:48.806Z,15.37
2023-02-09T06:52:45.919Z,15.33
2023-02-09T06:55:20.892Z,15.93
2023-02-09T06:57:49.126Z,17.00
2023-02-09T07:00:24.906Z,16.17
2023-02-09T07:02:59.936Z,16.90
2023-02-09T07:05:35.819Z,16.67
2023-02-09T07:08:03.754Z,16.87
2023-02-09T07:10:37.849Z,17.63
2023-02-09T07:13:05.345Z,17.10
2023-02-09T07:15:40.429Z,17.70
2023-02-09T07:18:14.854Z,17.70
2023-02-09T07:20:48.845Z,20.00
2023-02-09T07:23:16.305Z,18.50
2023-02-09T07:25:49.852Z,20.17
2023-02-09T07:28:20.570Z,19.10
2023-02-09T07:31:00.051Z,19.00
2023-02-09T07:33:27.552Z,20.37
2023-02-09T07:36:01.836Z,20.03
2023-02-09T07:38:35.870Z,19.23
2023-02-09T07:41:05.308Z,20.57
2023-02-09T07:43:39.957Z,19.83
2023-02-09T07:46:08.536Z,20.40
2023-02-09T07:48:43.859Z,22.17
2023-02-09T07:51:33.430Z,21.03
2023-02-09T07:54:13.454Z,19.47
2023-02-09T07:56:47.855Z,21.47
2023-02-09T07:59:22.037Z,20.23
2023-02-09T08:01:49.825Z,20.60
2023-02-09T08:04:17.604Z,20.60
2023-02-09T08:06:52.852Z,20.13
2023-02-09T08:09:26.861Z,19.90
2023-02-09T08:12:05.859Z,17.30
2023-02-09T08:14:50.831Z,17.97
2023-02-09T08:17:28.843Z,17.10
2023-02-09T08:20:16.024Z,16.77
2023-02-09T08:22:54.834Z,16.13
2023-02-09T08:25:24.482Z,15.10
2023-02-09T08:27:59.893Z,15.00
2023-02-09T08:30:33.838Z,15.77
2023-02-09T08:33:07.839Z,13.70
2023-02-09T08:35:35.389Z,15.47
2023-02-09T08:38:10.853Z,16.17
2023-02-09T08:40:41.815Z,15.57
2023-02-09T08:43:15.952Z,15.83
2023-02-09T08:45:45.174Z,15.67
2023-02-09T08:48:18.813Z,15.03
2023-02-09T08:50:52.855Z,15.20
2023-02-09T08:53:33.816Z,14.63
2023-02-09T08:56:01.301Z,15.20
2023-02-09T08:58:36.828Z,14.60
2023-02-09T09:01:05.496Z,14.57
2023-02-09T09:03:33.544Z,15.43
2023-02-09T09:06:12.885Z,15.03
2023-02-09T09:08:47.879Z,14.73
2023-02-09T09:11:15.370Z,15.67
2023-02-09T09:13:50.818Z,14.00
2023-02-09T09:16:21.686Z,13.67
2023-02-09T09:18:56.838Z,14.17
2023-02-09T09:21:24.593Z,12.57
2023-02-09T09:23:59.829Z,11.83
2023-02-09T09:26:27.242Z,12.77
2023-02-09T09:29:00.834Z,12.40
2023-02-09T09:31:30.683Z,14.13
2023-02-09T09:34:04.834Z,12.73
2023-02-09T09:36:38.908Z,12.47
2023-02-09T09:39:12.869Z,13.20
2023-02-09T09:41:41.979Z,12.60
2023-02-09T09:44:28.975Z,13.60
2023-02-09T09:47:08.196Z,13.03
2023-02-09T09:49:36.713Z,12.97
2023-02-09T09:52:25.937Z,11.80
2023-02-09T09:55:12.132Z,12.93
2023-02-09T09:57:51.164Z,12.37
2023-02-09T10:00:39.151Z,11.43
2023-02-09T10:03:21.433Z,11.87
2023-02-09T10:05:59.158Z,11.80
2023-02-09T10:08:37.133Z,11.03
2023-02-09T10:11:15.168Z,11.23
2023-02-09T10:13:58.215Z,11.33
2023-02-09T10:16:37.229Z,10.70
2023-02-09T10:19:30.398Z,10.90
2023-02-09T10:22:04.241Z,10.03
2023-02-09T10:24:41.147Z,10.20
2023-02-09T10:27:08.520Z,10.95
2023-02-09T10:29:43.138Z,10.88
2023-02-09T10:32:25.202Z,9.82
2023-02-09T10:34:54.819Z,10.00
2023-02-09T10:37:41.203Z,9.80
2023-02-09T10:40:25.145Z,9.10
2023-02-09T10:42:57.225Z,10.45
2023-02-09T10:45:46.663Z,9.15
2023-02-09T10:48:21.148Z,8.30
2023-02-09T10:51:05.191Z,8.57
2023-02-09T10:54:04.123Z,12.40
2023-02-09T10:56:42.307Z,9.57
2023-02-09T10:59:28.164Z,9.20
2023-02-09T11:01:58.842Z,7.80
2023-02-09T11:04:53.171Z,9.93
2023-02-09T11:07:23.432Z,8.75
2023-02-09T11:09:59.375Z,9.13
2023-02-09T11:12:28.909Z,9.02
2023-02-09T11:14:56.333Z,7.97
2023-02-09T11:17:44.208Z,8.30
2023-02-09T11:20:39.589Z,7.97
2023-02-09T11:23:42.199Z,8.27
2023-02-09T11:26:26.484Z,8.95
2023-02-09T11:29:12.369Z,7.90
2023-02-09T11:32:05.329Z,7.45
2023-02-09T11:34:45.250Z,7.63
2023-02-09T11:37:28.275Z,8.05
2023-02-09T11:40:16.484Z,7.57
2023-02-09T11:43:21.186Z,6.88
2023-02-09T11:45:55.535Z,6.80
2023-02-09T11:48:53.235Z,7.28
2023-02-09T11:51:37.131Z,8.18
2023-02-09T11:54:22.391Z,6.68
2023-02-09T11:57:09.180Z,6.47
2023-02-09T11:59:53.181Z,6.85
2023-02-09T12:02:53.686Z,6.97
2023-02-09T12:05:29.334Z,6.40
2023-02-09T12:08:06.689Z,6.72
2023-02-09T12:11:05.261Z,6.63
2023-02-09T12:14:18.240Z,6.00
2023-02-09T12:17:00.176Z,6.07
2023-02-09T12:19:43.145Z,5.63
2023-02-09T12:22:38.145Z,6.45
2023-02-09T12:25:34.834Z,4.97
2023-02-09T12:28:24.312Z,5.30
2023-02-09T12:30:52.664Z,5.45
2023-02-09T12:33:37.198Z,5.20
2023-02-09T12:36:17.235Z,5.68
2023-02-09T12:39:04.453Z,4.80
2023-02-09T12:41:59.189Z,5.68
2023-02-09T12:44:26.507Z,5.43
2023-02-09T12:47:06.568Z,5.07
2023-02-09T12:49:41.162Z,5.60
2023-02-09T12:52:23.173Z,5.45
2023-02-09T12:55:04.179Z,5.78
2023-02-09T12:57:50.584Z,4.97
2023-02-09T13:00:25.217Z,5.47
2023-02-09T13:02:56.715Z,5.47
2023-02-09T13:05:46.503Z,6.03
2023-02-09T13:08:27.957Z,5.35
2023-02-09T13:11:07.189Z,5.38
2023-02-09T13:14:02.194Z,5.88
2023-02-09T13:17:04.228Z,6.13
2023-02-09T13:20:25.311Z,6.43
2023-02-09T13:23:40.180Z,5.80
2023-02-09T13:26:30.201Z,6.55
2023-02-09T13:29:22.217Z,6.68
2023-02-09T13:32:09.170Z,6.93
2023-02-09T13:34:44.424Z,7.45
2023-02-09T13:37:54.456Z,7.53
2023-02-09T13:40:40.213Z,6.82
2023-02-09T13:43:34.169Z,7.38
2023-02-09T13:46:03.186Z,7.75
2023-02-09T13:48:44.175Z,7.85
2023-02-09T13:51:20.216Z,7.82
2023-02-09T13:54:16.260Z,6.90
2023-02-09T13:56:43.985Z,7.20
2023-02-09T13:59:24.263Z,8.13
2023-02-09T14:01:53.622Z,7.22
2023-02-09T14:04:36.431Z,8.23
2023-02-09T14:07:16.212Z,8.73
2023-02-09T14:10:08.275Z,7.88
2023-02-09T14:13:02.214Z,9.10
2023-02-09T14:16:06.011Z,8.93
2023-02-09T14:19:01.300Z,9.23
2023-02-09T14:21:52.228Z,9.13
2023-02-09T14:24:25.454Z,8.88
2023-02-09T14:27:02.217Z,9.00
2023-02-09T14:29:38.101Z,9.10
2023-02-09T14:32:44.289Z,8.63
2023-02-09T14:35:33.786Z,9.48
2023-02-09T14:38:09.182Z,9.52
2023-02-09T14:40:37.454Z,9.45
2023-02-09T14:43:31.194Z,9.65
2023-02-09T14:46:08.243Z,8.80
2023-02-09T14:48:35.612Z,9.65
2023-02-09T14:51:21.178Z,9.38
2023-02-09T14:54:02.187Z,8.90
2023-02-09T14:56:34.551Z,8.98
2023-02-09T14:59:08.267Z,10.57
2023-02-09T15:01:42.286Z,10.27
2023-02-09T15:04:16.234Z,9.35
2023-02-09T15:06:47.096Z,9.17
2023-02-09T15:09:43.220Z,10.43
2023-02-09T15:12:33.260Z,9.90
2023-02-09T15:15:01.629Z,10.00
2023-02-09T15:17:37.238Z,9.70
2023-02-09T15:20:11.252Z,9.80
2023-02-09T15:22:39.953Z,9.83
2023-02-09T15:25:14.247Z,10.13
2023-02-09T15:27:56.481Z,10.23
2023-02-09T15:30:36.902Z,10.10
2023-02-09T15:33:12.929Z,15.07
2023-02-09T15:35:48.965Z,15.17
2023-02-09T15:38:25.954Z,10.43
2023-02-09T15:41:11.889Z,10.87
2023-02-09T15:44:03.997Z,10.67
2023-02-09T15:46:55.949Z,10.57
2023-02-09T15:49:23.347Z,11.83
2023-02-09T15:51:57.026Z,11.23
2023-02-09T15:54:37.103Z,12.17
2023-02-09T15:57:10.938Z,11.13
2023-02-09T15:59:44.923Z,11.27
2023-02-09T16:02:17.084Z,11.27
2023-02-09T16:04:50.959Z,11.90
2023-02-09T16:07:25.947Z,11.20
2023-02-09T16:09:59.953Z,11.97
2023-02-09T16:12:27.458Z,11.40
2023-02-09T16:15:00.941Z,11.33
2023-02-09T16:17:28.359Z,11.13
2023-02-09T16:20:02.134Z,11.07
2023-02-09T16:22:35.894Z,10.53
2023-02-09T16:25:03.458Z,10.43
2023-02-09T16:27:38.414Z,10.90
2023-02-09T16:30:23.008Z,11.87
2023-02-09T16:32:57.932Z,11.40
2023-02-09T16:35:31.917Z,12.03
2023-02-09T16:38:05.914Z,11.00
2023-02-09T16:40:36.357Z,11.43
2023-02-09T16:43:09.942Z,11.07
2023-02-09T16:45:38.728Z,11.50
2023-02-09T16:48:14.957Z,11.07
2023-02-09T16:50:51.979Z,11.80
2023-02-09T16:53:35.029Z,12.27
2023-02-09T16:56:12.019Z,11.67
2023-02-09T16:58:46.009Z,12.33
2023-02-09T17:01:19.660Z,12.37
2023-02-09T17:04:03.943Z,12.63
2023-02-09T17:06:32.136Z,12.60
2023-02-09T17:09:05.931Z,12.27
2023-02-09T17:11:39.913Z,12.07
2023-02-09T17:14:07.480Z,12.80
2023-02-09T17:16:45.050Z,11.93
2023-02-09T17:19:15.910Z,13.03
2023-02-09T17:21:43.368Z,13.87
2023-02-09T17:24:21.964Z,12.63
2023-02-09T17:26:55.931Z,12.87
2023-02-09T17:29:30.045Z,12.70
2023-02-09T17:32:25.970Z,11.80
2023-02-09T17:35:01.021Z,12.93
2023-02-09T17:37:29.749Z,12.83
2023-02-09T17:40:03.966Z,11.37
2023-02-09T17:42:31.678Z,13.77
2023-02-09T17:45:05.983Z,12.20
2023-02-09T17:47:33.585Z,12.83
2023-02-09T17:50:07.944Z,11.93
2023-02-09T17:52:42.007Z,11.70
2023-02-09T17:55:40.126Z,11.70
2023-02-09T17:58:13.963Z,11.70
2023-02-09T18:00:42.615Z,11.77
2023-02-09T18:03:26.007Z,11.37
2023-02-09T18:06:02.979Z,11.23
2023-02-09T18:08:31.774Z,12.43
2023-02-09T18:11:05.924Z,11.97
2023-02-09T18:13:33.330Z,11.83
2023-02-09T18:16:07.011Z,12.07
2023-02-09T18:18:41.992Z,12.27
2023-02-09T18:21:14.396Z,11.83
2023-02-09T18:23:49.981Z,11.30
2023-02-09T18:26:24.106Z,11.80
2023-02-09T18:28:57.958Z,11.07
2023-02-09T18:31:31.995Z,11.80
2023-02-09T18:33:59.703Z,11.37
2023-02-09T18:36:34.022Z,12.07
2023-02-09T18:39:01.613Z,11.30
2023-02-09T18:41:35.978Z,10.90
2023-02-09T18:44:11.986Z,10.23
2023-02-09T18:46:41.317Z,9.50
2023-02-09T18:49:17.953Z,10.20
2023-02-09T18:51:45.430Z,9.90
2023-02-09T18:54:28.336Z,9.87
2023-02-09T18:56:56.111Z,10.03
2023-02-09T18:59:33.939Z,9.83
2023-02-09T19:02:01.493Z,10.77
2023-02-09T19:04:34.972Z,10.20
2023-02-09T19:07:09.965Z,10.47
2023-02-09T19:09:45.980Z,11.50
2023-02-09T19:12:13.791Z,10.87
2023-02-09T19:14:50.958Z,11.57
2023-02-09T19:17:20.952Z,11.30
2023-02-09T19:19:55.937Z,10.50
2023-02-09T19:22:23.380Z,11.10
2023-02-09T19:25:00.915Z,10.50
2023-02-09T19:27:35.971Z,10.57
2023-02-09T19:30:11.407Z,11.47
2023-02-09T19:32:39.850Z,11.37
2023-02-09T19:35:13.954Z,11.30
2023-02-09T19:37:42.009Z,10.90
2023-02-09T19:40:26.978Z,11.57
2023-02-09T19:42:55.360Z,13.00
2023-02-09T19:45:29.963Z,11.37
2023-02-09T19:47:58.225Z,12.20
2023-02-09T19:50:31.982Z,12.10
2023-02-09T19:53:06.066Z,11.67
2023-02-09T19:55:47.267Z,13.30
2023-02-09T19:58:14.908Z,12.57
2023-02-09T20:00:48.997Z,13.37
2023-02-09T20:03:23.989Z,12.10
2023-02-09T20:05:52.078Z,11.37
2023-02-09T20:08:26.954Z,13.13
2023-02-09T20:10:54.324Z,11.93
2023-02-09T20:15:57.032Z,12.67
2023-02-09T20:18:24.442Z,13.80
2023-02-09T20:20:57.972Z,16.10
2023-02-09T20:23:25.401Z,15.27
2023-02-09T20:25:52.820Z,14.60
2023-02-09T20:28:28.010Z,14.70
2023-02-09T20:30:55.482Z,14.73
2023-02-09T20:33:29.983Z,14.73
2023-02-09T20:36:04.007Z,14.73
2023-02-09T20:38:32.046Z,14.27
2023-02-09T20:41:05.966Z,15.83
2023-02-09T20:43:52.172Z,16.63
2023-02-09T20:46:46.957Z,16.00
2023-02-09T20:49:17.165Z,15.13
2023-02-09T20:51:52.986Z,16.73
2023-02-09T20:54:34.013Z,14.53
2023-02-09T20:57:01.460Z,16.63
2023-02-09T20:59:38.045Z,15.37
2023-02-09T21:02:05.595Z,16.00
2023-02-09T21:04:39.969Z,17.37
2023-02-09T21:07:07.380Z,16.70
2023-02-09T21:09:34.776Z,16.17
2023-02-09T21:12:08.958Z,18.47
2023-02-09T21:14:43.915Z,17.63
2023-02-09T21:17:18.950Z,18.50
2023-02-09T21:19:46.465Z,17.43
2023-02-09T21:22:23.971Z,18.00
2023-02-09T21:24:57.948Z,16.57
2023-02-09T21:27:26.184Z,17.70
2023-02-09T21:30:00.021Z,17.00
2023-02-09T21:32:33.956Z,18.80
2023-02-09T21:35:01.703Z,16.73
2023-02-09T21:37:39.063Z,16.00
2023-02-09T21:40:07.115Z,15.20
2023-02-09T21:42:36.835Z,15.17
2023-02-09T21:45:10.963Z,15.17
2023-02-09T21:47:39.646Z,17.37
2023-02-09T21:50:16.005Z,16.07
2023-02-09T21:52:56.958Z,17.27
2023-02-09T21:55:37.986Z,16.90
2023-02-09T21:58:11.976Z,15.50
2023-02-09T22:00:46.400Z,15.90
2023-02-09T22:03:13.998Z,15.30
2023-02-09T22:05:47.962Z,15.07
2023-02-09T22:08:22.974Z,14.67
2023-02-09T22:10:56.995Z,16.67
2023-02-09T22:13:24.427Z,15.97
2023-02-09T22:15:57.984Z,16.43
2023-02-09T22:18:31.979Z,16.97
2023-02-09T22:21:05.956Z,17.97
2023-02-09T22:23:33.567Z,16.43
2023-02-09T22:26:05.853Z,17.13
2023-02-09T22:28:40.947Z,20.03
2023-02-09T22:31:11.268Z,18.10
2023-02-09T22:33:45.952Z,20.03
2023-02-09T22:36:16.458Z,21.03
2023-02-09T22:38:50.992Z,22.23
2023-02-09T22:41:27.949Z,21.97
2023-02-09T22:44:02.966Z,22.27
2023-02-09T22:46:42.992Z,21.53
2023-02-09T22:49:27.976Z,21.93
2023-02-09T22:51:55.385Z,21.53
2023-02-09T22:54:36.030Z,23.50
2023-02-09T22:57:16.981Z,20.40
2023-02-09T22:59:44.572Z,20.10
2023-02-09T23:02:19.010Z,20.93
2023-02-09T23:04:46.396Z,21.37
2023-02-09T23:07:20.022Z,21.57
2023-02-09T23:09:53.983Z,19.77
2023-02-09T23:12:21.400Z,20.30
2023-02-09T23:14:55.010Z,20.83
2023-02-09T23:17:28.977Z,20.73
2023-02-09T23:19:56.342Z,19.70
2023-02-09T23:22:30.027Z,20.63
2023-02-09T23:24:57.343Z,19.47
2023-02-09T23:27:31.005Z,21.47
2023-02-09T23:29:58.425Z,19.23
2023-02-09T23:32:31.986Z,18.10
2023-02-09T23:35:05.984Z,17.97
2023-02-09T23:37:37.957Z,18.20
2023-02-09T23:40:13.967Z,15.33
2023-02-09T23:42:41.313Z,15.50
2023-02-09T23:45:15.949Z,15.03
2023-02-09T23:47:43.330Z,13.20
2023-02-09T23:50:16.969Z,13.33
2023-02-09T23:53:04.964Z,14.20
2023-02-09T23:55:38.987Z,13.07
2023-02-09T23:58:12.999Z,14.20
